Time;durP1;ratioP1;P1;durP2;ratioP2;P2;SDS_P1;SDS_P2;PMS_P1;PMS_P2;Temp;Humidity;BMP_temperature;BMP_pressure;BME280_temperature;BME280_humidity;BME280_pressure;Samples;Min_cycle;Max_cycle;Signal;HPM_P1;HPM_P2
2022/05/20 00:02:17;;;;;;;5.78;2.78;;;13.30;99.90;;;;;;5087882;28;20437;-67
2022/05/20 00:04:42;;;;;;;6.65;3.05;;;13.30;99.90;;;;;;5089529;28;20039;-70
2022/05/20 00:07:09;;;;;;;7.43;2.90;;;13.30;99.90;;;;;;5072566;28;20047;-66
2022/05/20 00:09:36;;;;;;;6.70;2.97;;;13.30;99.90;;;;;;5089580;28;20048;-66
2022/05/20 00:12:04;;;;;;;4.38;2.30;;;13.30;99.90;;;;;;5088632;28;20569;-66
2022/05/20 00:14:34;;;;;;;6.60;2.58;;;13.30;99.90;;;;;;5086066;28;20039;-67
2022/05/20 00:17:05;;;;;;;4.55;2.13;;;13.30;99.90;;;;;;5068893;28;20048;-61
2022/05/20 00:19:32;;;;;;;3.00;2.10;;;13.20;99.90;;;;;;5069827;28;20048;-69
2022/05/20 00:21:58;;;;;;;6.15;2.42;;;13.20;99.90;;;;;;5085743;28;20036;-60
2022/05/20 00:24:24;;;;;;;9.40;2.80;;;13.10;99.90;;;;;;5085510;28;20479;-72
2022/05/20 00:26:50;;;;;;;10.32;4.03;;;13.10;99.90;;;;;;5085719;28;20040;-60
2022/05/20 00:29:17;;;;;;;15.30;5.40;;;13.10;99.90;;;;;;5085305;28;20059;-61
2022/05/20 00:31:43;;;;;;;12.48;5.03;;;13.10;99.90;;;;;;5089026;28;20053;-64
2022/05/20 00:34:09;;;;;;;10.18;4.13;;;13.10;99.90;;;;;;5088501;28;20075;-62
2022/05/20 00:36:35;;;;;;;4.93;2.42;;;13.00;99.90;;;;;;5085211;28;20152;-70
2022/05/20 00:39:00;;;;;;;5.45;2.55;;;13.00;99.90;;;;;;5085546;28;20062;-65
2022/05/20 00:41:26;;;;;;;5.55;2.70;;;13.00;99.90;;;;;;5068411;28;20051;-64
2022/05/20 00:43:52;;;;;;;7.25;2.72;;;13.00;99.90;;;;;;5069154;28;20040;-60
2022/05/20 00:46:23;;;;;;;8.93;3.47;;;12.90;99.90;;;;;;5088278;28;20845;-62
2022/05/20 00:48:57;;;;;;;8.32;3.13;;;12.90;99.90;;;;;;5089275;28;20047;-61
2022/05/20 00:52:00;;;;;;;5.13;3.05;;;12.80;99.90;;;;;;5088226;28;20056;-67
2022/05/20 00:54:43;;;;;;;6.53;3.00;;;12.80;99.90;;;;;;5088222;28;20155;-69
2022/05/20 00:57:11;;;;;;;4.80;3.35;;;12.80;99.90;;;;;;5088550;28;20051;-61
2022/05/20 00:59:40;;;;;;;6.22;3.50;;;12.80;99.90;;;;;;5088221;28;20051;-66
2022/05/20 01:02:09;;;;;;;7.25;3.60;;;12.70;99.90;;;;;;5068539;28;20048;-69
2022/05/20 01:04:37;;;;;;;8.90;3.80;;;12.60;99.90;;;;;;5067483;28;20578;-69
2022/05/20 01:07:04;;;;;;;7.75;3.65;;;12.60;99.90;;;;;;5070515;28;20108;-60
2022/05/20 01:09:30;;;;;;;10.02;3.72;;;12.60;99.90;;;;;;5085038;28;20055;-61
2022/05/20 01:11:56;;;;;;;9.73;3.97;;;12.50;99.90;;;;;;5085409;28;20402;-62
2022/05/20 01:14:25;;;;;;;5.38;3.60;;;12.50;99.90;;;;;;5084946;28;20048;-62
2022/05/20 01:16:52;;;;;;;7.03;3.60;;;12.50;99.90;;;;;;5085361;28;20056;-65
2022/05/20 01:19:27;;;;;;;9.63;3.83;;;12.40;99.90;;;;;;5085405;28;20058;-65
2022/05/20 01:21:52;;;;;;;8.98;4.07;;;12.40;99.90;;;;;;5083615;28;20051;-60
2022/05/20 01:24:18;;;;;;;10.10;4.05;;;12.30;99.90;;;;;;5071377;28;20131;-60
2022/05/20 01:26:44;;;;;;;9.65;4.10;;;12.30;99.90;;;;;;5071133;28;20126;-62
2022/05/20 01:29:09;;;;;;;8.75;4.07;;;12.30;99.90;;;;;;5088130;28;20054;-66
2022/05/20 01:31:35;;;;;;;10.90;4.57;;;12.30;99.90;;;;;;5087607;28;20075;-71
2022/05/20 01:34:01;;;;;;;9.07;4.32;;;12.30;99.90;;;;;;5087432;28;20047;-60
2022/05/20 01:36:27;;;;;;;10.20;4.40;;;12.20;99.90;;;;;;5071446;28;20860;-65
2022/05/20 01:38:55;;;;;;;10.00;4.18;;;12.20;99.90;;;;;;5083959;28;20097;-66
2022/05/20 01:41:36;;;;;;;6.85;4.10;;;12.20;99.90;;;;;;5085400;28;20047;-67
2022/05/20 01:44:09;;;;;;;7.78;4.47;;;12.20;99.90;;;;;;5084909;28;20470;-61
2022/05/20 01:46:43;;;;;;;8.85;4.65;;;12.10;99.90;;;;;;5087233;28;20070;-66
2022/05/20 01:49:36;;;;;;;9.10;4.95;;;12.10;99.90;;;;;;5088505;28;20039;-64
2022/05/20 01:52:01;;;;;;;11.98;5.32;;;12.10;99.90;;;;;;5088048;28;20504;-59
2022/05/20 01:54:33;;;;;;;10.32;5.40;;;12.00;99.90;;;;;;5071469;28;20083;-72
2022/05/20 01:57:15;;;;;;;9.60;5.30;;;12.00;99.90;;;;;;5087767;28;20133;-70
2022/05/20 01:59:45;;;;;;;8.75;5.03;;;12.00;99.90;;;;;;5070985;28;20040;-66
2022/05/20 02:02:25;;;;;;;8.20;4.80;;;12.00;99.90;;;;;;5087943;28;20044;-68
2022/05/20 02:05:00;;;;;;;8.37;5.50;;;12.00;99.90;;;;;;5087408;28;20463;-62
2022/05/20 02:07:30;;;;;;;12.30;5.43;;;11.90;99.90;;;;;;5101724;28;20355;-64
2022/05/20 02:10:23;;;;;;;12.38;5.32;;;11.90;99.90;;;;;;5067486;28;20495;-64
2022/05/20 02:12:52;;;;;;;11.82;5.75;;;11.90;99.90;;;;;;5073383;28;20063;-61
2022/05/20 02:15:18;;;;;;;;;;;11.90;99.90;;;;;;5085277;28;20048;-61
2022/05/20 02:17:47;;;;;;;8.43;4.68;;;11.90;99.90;;;;;;5086683;28;20026;-65
2022/05/20 02:20:27;;;;;;;8.85;5.00;;;11.90;99.90;;;;;;5088382;28;20044;-63
2022/05/20 02:23:03;;;;;;;9.30;4.97;;;11.80;99.90;;;;;;5083836;28;20119;-65
2022/05/20 02:25:34;;;;;;;13.50;5.45;;;11.80;99.90;;;;;;5084727;28;20087;-61
2022/05/20 02:28:18;;;;;;;13.70;5.15;;;11.80;99.90;;;;;;5053603;28;20122;-70
2022/05/20 02:30:45;;;;;;;12.23;5.32;;;11.80;99.90;;;;;;5046742;28;20536;-64
2022/05/20 02:33:21;;;;;;;10.20;5.03;;;11.70;99.90;;;;;;5081287;28;20048;-61
2022/05/20 02:35:47;;;;;;;10.65;5.43;;;11.70;99.90;;;;;;5087645;28;20264;-60
2022/05/20 02:38:16;;;;;;;13.27;5.60;;;11.70;99.90;;;;;;5075997;28;20487;-61
2022/05/20 02:40:46;;;;;;;10.32;5.90;;;11.70;99.90;;;;;;5067190;28;20052;-64
2022/05/20 02:43:12;;;;;;;9.98;6.18;;;11.70;99.90;;;;;;5067717;28;20048;-65
2022/05/20 02:45:41;;;;;;;15.20;6.70;;;11.70;99.90;;;;;;5067664;28;20044;-62
2022/05/20 02:48:07;;;;;;;8.13;6.10;;;11.70;99.90;;;;;;5062088;28;20125;-60
2022/05/20 02:50:34;;;;;;;11.10;5.93;;;11.60;99.90;;;;;;5070986;28;20052;-72
2022/05/20 02:53:01;;;;;;;12.80;6.45;;;11.60;99.90;;;;;;5070578;28;20090;-63
2022/05/20 02:55:27;;;;;;;15.40;7.22;;;11.60;99.90;;;;;;5087670;28;20040;-61
2022/05/20 02:57:53;;;;;;;10.13;6.68;;;11.60;99.90;;;;;;5086701;28;20390;-63
2022/05/20 03:05:51;;;;;;;15.82;8.13;;;11.50;99.90;;;;;;5086738;28;20055;-60
2022/05/20 03:08:18;;;;;;;17.63;8.50;;;11.50;99.90;;;;;;5086631;28;20112;-68
2022/05/20 03:10:44;;;;;;;12.48;8.63;;;11.50;99.90;;;;;;5066648;28;20495;-63
2022/05/20 03:13:09;;;;;;;15.23;9.25;;;11.50;99.90;;;;;;5066949;28;20051;-61
2022/05/20 03:15:39;;;;;;;16.23;9.77;;;11.60;99.90;;;;;;5033635;28;20048;-70
2022/05/20 03:18:06;;;;;;;16.05;10.27;;;11.60;99.90;;;;;;5066748;28;20572;-64
2022/05/20 03:20:34;;;;;;;17.50;9.25;;;11.60;99.90;;;;;;5052035;28;20048;-65
2022/05/20 03:23:00;;;;;;;15.05;9.00;;;11.60;99.90;;;;;;5076212;28;20502;-68
2022/05/20 03:25:26;;;;;;;16.95;9.85;;;11.60;99.90;;;;;;5070514;28;20048;-67
2022/05/20 03:27:52;;;;;;;19.30;9.77;;;11.60;99.90;;;;;;5086186;28;20043;-66
2022/05/20 03:30:20;;;;;;;13.88;9.20;;;11.50;99.90;;;;;;5086618;28;20534;-64
2022/05/20 03:32:45;;;;;;;12.85;9.55;;;11.50;99.90;;;;;;5089775;28;20036;-67
2022/05/20 03:35:12;;;;;;;15.15;9.70;;;11.50;99.90;;;;;;5089798;28;20043;-69
2022/05/20 03:37:38;;;;;;;13.90;9.43;;;11.40;99.90;;;;;;5090055;28;20126;-63
2022/05/20 03:40:05;;;;;;;14.30;9.07;;;11.40;99.90;;;;;;5086531;28;20832;-65
2022/05/20 03:42:32;;;;;;;13.15;9.00;;;11.40;99.90;;;;;;5086896;28;20047;-67
2022/05/20 03:44:58;;;;;;;16.55;8.90;;;11.40;99.90;;;;;;5085251;28;20040;-63
2022/05/20 03:47:24;;;;;;;17.75;9.93;;;11.30;99.90;;;;;;5069675;28;20048;-70
2022/05/20 03:49:49;;;;;;;21.02;9.73;;;11.30;99.90;;;;;;5086206;28;20055;-60
2022/05/20 03:52:16;;;;;;;15.23;9.68;;;11.30;99.90;;;;;;5089269;28;20097;-68
2022/05/20 03:54:42;;;;;;;16.13;9.35;;;11.30;99.90;;;;;;5089661;28;20062;-65
2022/05/20 03:57:09;;;;;;;17.00;9.85;;;11.30;99.90;;;;;;5089136;28;20051;-68
2022/05/20 03:59:37;;;;;;;22.02;9.90;;;11.30;99.90;;;;;;5073674;28;20063;-66
2022/05/20 04:02:06;;;;;;;15.18;9.18;;;11.30;99.90;;;;;;5101008;28;20051;-69
2022/05/20 04:04:33;;;;;;;15.98;9.48;;;11.30;99.90;;;;;;5108273;28;20266;-66
2022/05/20 04:07:06;;;;;;;14.20;9.50;;;11.30;99.90;;;;;;5089629;28;20047;-70
2022/05/20 04:09:32;;;;;;;16.23;9.80;;;11.30;99.90;;;;;;5107671;28;20043;-67
2022/05/20 04:12:03;;;;;;;20.73;9.95;;;11.30;99.90;;;;;;5107030;28;20495;-61
2022/05/20 04:14:30;;;;;;;17.85;9.57;;;11.30;99.90;;;;;;5107300;28;20047;-62
2022/05/20 04:16:57;;;;;;;14.93;8.95;;;11.40;99.90;;;;;;5107775;28;20412;-66
2022/05/20 04:19:28;;;;;;;17.67;8.85;;;11.40;99.90;;;;;;5089007;28;20052;-63
2022/05/20 04:22:00;;;;;;;15.32;9.40;;;11.40;99.90;;;;;;5068445;28;20044;-62
2022/05/20 04:24:26;;;;;;;17.67;8.95;;;11.50;99.90;;;;;;5085737;28;20123;-61
2022/05/20 04:26:52;;;;;;;14.55;9.00;;;11.50;99.90;;;;;;5085072;28;20135;-63
2022/05/20 04:29:18;;;;;;;15.05;8.73;;;11.50;99.90;;;;;;5069385;28;20153;-64
2022/05/20 04:31:50;;;;;;;12.45;8.32;;;11.60;99.90;;;;;;5090514;28;20139;-73
2022/05/20 04:34:17;;;;;;;16.52;7.82;;;11.70;99.90;;;;;;5089921;28;20416;-64
2022/05/20 04:36:43;;;;;;;16.98;8.30;;;11.70;99.90;;;;;;5088419;28;20052;-63
2022/05/20 04:39:09;;;;;;;12.30;7.93;;;11.80;99.90;;;;;;5072316;28;20040;-65
2022/05/20 04:47:08;;;;;;;11.43;7.47;;;11.90;99.90;;;;;;5085675;28;20044;-62
2022/05/20 04:49:39;;;;;;;15.25;8.93;;;11.90;99.90;;;;;;5085649;28;20048;-66
2022/05/20 04:52:05;;;;;;;16.90;7.65;;;12.00;99.90;;;;;;5085533;28;20164;-62
2022/05/20 04:54:49;;;;;;;13.52;7.57;;;12.00;99.90;;;;;;5084791;28;20044;-69
2022/05/20 04:57:44;;;;;;;23.90;8.90;;;12.00;99.90;;;;;;5068633;28;20253;-68
2022/05/20 05:00:09;;;;;;;17.33;7.97;;;12.20;99.90;;;;;;5086190;28;20113;-69
2022/05/20 05:02:35;;;;;;;11.05;7.65;;;12.40;99.90;;;;;;5088345;28;20044;-71
2022/05/20 05:05:02;;;;;;;15.88;8.63;;;12.60;99.90;;;;;;5088441;28;20493;-61
2022/05/20 05:07:27;;;;;;;19.70;9.55;;;12.80;99.90;;;;;;5071768;28;20050;-64
2022/05/20 05:09:53;;;;;;;12.35;8.25;;;12.70;99.90;;;;;;5071776;28;20051;-67
2022/05/20 05:12:20;;;;;;;13.07;8.57;;;12.70;99.90;;;;;;5088952;28;20413;-68
2022/05/20 05:14:48;;;;;;;15.27;8.93;;;12.80;99.90;;;;;;5070664;28;20052;-65
2022/05/20 05:18:09;;;;;;;14.82;8.55;;;12.80;99.90;;;;;;5088977;28;20097;-67
2022/05/20 05:20:05;;;;;;;14.45;8.57;;;12.90;99.90;;;;;;5087740;28;20054;-64
2022/05/20 05:22:31;;;;;;;18.30;8.93;;;13.00;99.90;;;;;;5088532;28;20832;-61
2022/05/20 05:24:57;;;;;;;20.55;8.52;;;13.00;99.90;;;;;;5067551;28;20597;-61
2022/05/20 05:27:22;;;;;;;21.75;8.48;;;13.10;99.90;;;;;;5084874;28;20135;-64
2022/05/20 05:29:48;;;;;;;17.50;8.20;;;13.20;99.90;;;;;;5084903;28;20048;-67
2022/05/20 05:32:14;;;;;;;15.15;8.85;;;13.30;99.90;;;;;;5088007;28;20090;-61
2022/05/20 05:34:39;;;;;;;20.77;8.88;;;13.30;99.90;;;;;;5071339;28;20086;-63
2022/05/20 05:37:05;;;;;;;19.67;9.07;;;13.40;99.90;;;;;;5084102;28;20039;-67
2022/05/20 05:39:32;;;;;;;14.30;8.82;;;13.50;99.90;;;;;;5085509;28;20118;-62
2022/05/20 05:42:00;;;;;;;19.52;8.98;;;13.50;99.90;;;;;;5068311;28;20075;-60
2022/05/20 05:44:25;;;;;;;21.38;8.90;;;13.70;99.90;;;;;;5084844;28;20052;-63
2022/05/20 05:46:51;;;;;;;23.52;9.25;;;13.80;99.90;;;;;;5084552;28;20540;-63
2022/05/20 05:49:17;;;;;;;20.85;9.43;;;13.90;99.90;;;;;;5084824;28;20478;-67
2022/05/20 05:51:43;;;;;;;18.30;8.85;;;14.00;99.90;;;;;;5068762;28;20048;-61
2022/05/20 05:54:08;;;;;;;17.67;8.20;;;14.20;99.90;;;;;;5066992;28;20059;-61
2022/05/20 05:56:36;;;;;;;22.42;9.15;;;14.20;99.90;;;;;;5084804;28;20052;-62
2022/05/20 05:59:03;;;;;;;17.50;8.65;;;14.30;99.90;;;;;;5084021;28;20044;-64
2022/05/20 06:01:29;;;;;;;18.15;9.93;;;14.40;99.90;;;;;;5084550;28;20048;-66
2022/05/20 06:03:55;;;;;;;20.45;9.05;;;14.40;99.90;;;;;;5087520;28;20551;-65
2022/05/20 06:06:20;;;;;;;16.25;8.40;;;14.50;99.90;;;;;;5086963;28;20083;-70
2022/05/20 06:08:46;;;;;;;20.17;9.07;;;14.60;99.90;;;;;;5089600;28;20499;-61
2022/05/20 06:11:13;;;;;;;17.25;9.13;;;14.50;99.90;;;;;;5073927;28;20051;-65
2022/05/20 06:13:39;;;;;;;18.58;8.90;;;14.50;99.90;;;;;;5092139;28;20087;-61
2022/05/20 06:16:05;;;;;;;18.90;8.50;;;14.50;99.90;;;;;;5073531;28;20083;-65
2022/05/20 06:18:31;;;;;;;20.25;8.60;;;14.50;99.90;;;;;;5088172;28;20048;-63
2022/05/20 06:20:57;;;;;;;18.58;9.38;;;14.50;99.90;;;;;;5091057;28;20035;-68
2022/05/20 06:23:24;;;;;;;22.15;9.63;;;14.50;99.90;;;;;;5090713;28;20125;-68
2022/05/20 06:25:51;;;;;;;16.17;8.25;;;14.50;99.90;;;;;;5091670;28;20093;-67
2022/05/20 06:28:18;;;;;;;14.07;8.63;;;14.50;99.90;;;;;;5080626;28;20120;-60
2022/05/20 06:30:44;;;;;;;13.27;8.20;;;14.60;99.90;;;;;;5074027;28;20043;-68
2022/05/20 06:33:11;;;;;;;16.08;8.40;;;14.70;99.90;;;;;;5090112;28;20047;-64
2022/05/20 06:41:06;;;;;;;12.68;6.57;;;15.10;99.90;;;;;;5073673;28;20462;-71
2022/05/20 06:43:33;;;;;;;15.50;6.68;;;15.10;99.90;;;;;;5090251;28;20100;-67
2022/05/20 06:46:02;;;;;;;14.52;6.45;;;15.10;99.90;;;;;;5088681;28;20075;-65
2022/05/20 06:48:45;;;;;;;18.42;6.90;;;15.10;99.90;;;;;;5089683;28;20043;-68
2022/05/20 06:51:13;;;;;;;9.90;6.28;;;15.10;99.90;;;;;;5069967;28;21019;-68
2022/05/20 06:53:38;;;;;;;13.80;7.10;;;15.10;99.90;;;;;;5070810;28;20123;-63
2022/05/20 06:56:05;;;;;;;13.85;6.70;;;15.20;99.90;;;;;;5074665;28;20533;-64
2022/05/20 06:58:33;;;;;;;11.40;5.88;;;15.50;99.90;;;;;;5109081;28;20055;-60
2022/05/20 07:01:00;;;;;;;11.95;5.68;;;15.90;99.90;;;;;;5109445;28;20050;-62
2022/05/20 07:03:27;;;;;;;18.08;6.15;;;16.20;99.90;;;;;;5088826;28;20164;-63
2022/05/20 07:05:53;;;;;;;11.82;5.78;;;16.60;99.90;;;;;;5089276;28;20040;-64
2022/05/20 07:08:18;;;;;;;11.98;4.07;;;16.80;99.90;;;;;;5088808;28;20047;-61
2022/05/20 07:10:44;;;;;;;7.75;4.60;;;16.60;99.90;;;;;;5075115;28;20376;-65
2022/05/20 07:13:10;;;;;;;9.05;5.03;;;16.40;99.90;;;;;;5089905;28;20048;-63
2022/05/20 07:15:36;;;;;;;10.32;5.35;;;16.20;99.90;;;;;;5089088;28;20058;-70
2022/05/20 07:18:01;;;;;;;10.82;5.60;;;15.90;99.90;;;;;;5084768;28;20048;-65
2022/05/20 07:20:27;;;;;;;14.35;4.70;;;15.70;99.90;;;;;;5077610;28;20731;-64
2022/05/20 07:22:54;;;;;;;10.45;4.05;;;15.60;99.90;;;;;;5098679;28;20077;-67
2022/05/20 07:25:20;;;;;;;10.23;3.85;;;15.60;99.90;;;;;;5085520;28;20052;-72
2022/05/20 07:27:46;;;;;;;10.63;4.03;;;15.50;99.90;;;;;;5089568;28;20039;-67
2022/05/20 07:30:13;;;;;;;7.93;4.28;;;15.50;99.90;;;;;;5072294;28;20047;-70
2022/05/20 07:32:39;;;;;;;11.10;4.70;;;15.40;99.90;;;;;;5089693;28;20051;-61
2022/05/20 07:35:05;;;;;;;7.35;4.80;;;15.80;99.90;;;;;;5089962;28;20040;-64
2022/05/20 07:37:32;;;;;;;10.90;4.40;;;16.00;99.90;;;;;;5072832;28;20079;-67
2022/05/20 07:39:58;;;;;;;11.15;5.18;;;16.00;99.90;;;;;;5090799;28;20043;-67
2022/05/20 07:42:24;;;;;;;12.25;5.25;;;15.90;99.90;;;;;;5065188;28;20445;-71
2022/05/20 07:44:50;;;;;;;8.77;4.80;;;15.80;99.90;;;;;;5071985;28;20131;-70
2022/05/20 07:47:16;;;;;;;9.57;4.72;;;15.90;99.90;;;;;;5089031;28;20039;-70
2022/05/20 07:49:42;;;;;;;12.98;5.95;;;16.50;99.90;;;;;;5089091;28;20036;-64
2022/05/20 07:52:11;;;;;;;9.52;5.85;;;17.00;99.90;;;;;;5088288;28;20047;-62
2022/05/20 07:54:39;;;;;;;;;;;17.30;99.90;;;;;;5089367;28;20726;-62
2022/05/20 07:57:12;;;;;;;11.20;4.45;;;17.30;99.90;;;;;;5086958;28;20049;-64
2022/05/20 07:59:47;;;;;;;9.05;3.75;;;17.10;99.90;;;;;;5072058;28;20051;-65
2022/05/20 08:02:15;;;;;;;10.57;4.22;;;17.00;99.90;;;;;;5089045;28;20043;-67
2022/05/20 08:04:55;;;;;;;10.02;4.50;;;16.80;99.90;;;;;;5087848;28;20080;-67
2022/05/20 08:07:34;;;;;;;11.68;4.30;;;16.70;99.90;;;;;;5051955;28;20047;-62
2022/05/20 08:10:07;;;;;;;13.18;3.88;;;16.90;99.90;;;;;;5069755;28;20056;-68
2022/05/20 08:12:33;;;;;;;9.75;4.30;;;16.80;99.90;;;;;;5066813;28;20123;-63
2022/05/20 08:14:59;;;;;;;10.63;5.55;;;16.70;99.90;;;;;;5087960;28;20081;-61
2022/05/20 08:17:25;;;;;;;7.35;5.15;;;16.60;99.90;;;;;;5105360;28;20055;-67
2022/05/20 08:19:52;;;;;;;12.32;5.20;;;16.50;99.90;;;;;;5088524;28;20042;-61
2022/05/20 08:22:22;;;;;;;9.95;4.63;;;16.40;99.90;;;;;;5103650;28;20557;-68
2022/05/20 08:24:52;;;;;;;9.02;4.40;;;16.30;99.90;;;;;;5087162;28;20051;-70
2022/05/20 08:27:22;;;;;;;9.68;4.88;;;16.30;99.90;;;;;;5088951;28;20471;-63
2022/05/20 08:29:49;;;;;;;12.93;4.43;;;16.50;99.90;;;;;;5087800;28;20562;-61
2022/05/20 08:32:15;;;;;;;9.02;2.95;;;17.10;99.90;;;;;;5104843;28;20039;-62
2022/05/20 08:34:43;;;;;;;9.70;3.22;;;17.60;99.90;;;;;;5087730;28;20036;-61
2022/05/20 08:37:11;;;;;;;6.88;3.20;;;18.00;96.40;;;;;;5088513;28;20044;-59
2022/05/20 08:39:37;;;;;;;8.82;2.90;;;18.00;92.20;;;;;;5089354;28;20051;-64
2022/05/20 08:42:08;;;;;;;6.63;3.10;;;18.00;96.90;;;;;;5088618;28;20474;-60
2022/05/20 08:44:34;;;;;;;7.00;3.33;;;17.80;95.00;;;;;;5087662;28;20486;-60
2022/05/20 08:47:14;;;;;;;10.90;3.38;;;17.80;98.30;;;;;;5087027;28;20147;-70
2022/05/20 08:49:41;;;;;;;5.90;3.10;;;17.70;98.50;;;;;;5105823;28;20546;-67
2022/05/20 08:52:07;;;;;;;6.10;2.80;;;17.80;99.90;;;;;;5088042;28;20786;-70
2022/05/20 08:54:33;;;;;;;7.35;2.83;;;18.10;99.70;;;;;;5088404;28;20127;-60
2022/05/20 08:57:16;;;;;;;6.50;3.00;;;18.30;96.60;;;;;;5106445;28;20130;-60
2022/05/20 08:59:42;;;;;;;7.93;2.40;;;18.20;95.10;;;;;;5086172;28;20043;-60
2022/05/20 09:02:09;;;;;;;10.02;2.72;;;18.10;96.50;;;;;;5086533;28;20058;-72
2022/05/20 09:04:35;;;;;;;6.72;2.35;;;18.20;98.10;;;;;;5084521;28;20559;-68
2022/05/20 09:07:04;;;;;;;5.82;2.28;;;18.40;98.40;;;;;;5085917;28;20036;-62
2022/05/20 09:09:43;;;;;;;7.57;2.88;;;18.70;96.20;;;;;;5067495;28;20040;-61
2022/05/20 09:12:10;;;;;;;10.25;2.83;;;19.10;94.40;;;;;;5078338;28;20052;-72
2022/05/20 09:17:22;;;;;;;7.80;2.78;;;19.70;82.70;;;;;;5085253;28;20553;-67
2022/05/20 09:20:00;;;;;;;8.55;2.97;;;19.60;81.10;;;;;;5096690;28;20069;-65
2022/05/20 09:22:32;;;;;;;5.57;2.60;;;19.70;83.50;;;;;;5086563;28;20043;-62
2022/05/20 09:24:59;;;;;;;13.40;3.15;;;19.80;81.00;;;;;;5087799;28;20189;-62
2022/05/20 09:27:36;;;;;;;5.22;2.53;;;19.90;82.00;;;;;;5087510;28;20048;-67
2022/05/20 09:30:13;;;;;;;5.20;2.40;;;20.00;78.70;;;;;;5086678;28;20098;-63
2022/05/20 09:32:47;;;;;;;6.68;2.20;;;19.90;68.90;;;;;;5070971;28;20126;-66
2022/05/20 09:35:34;;;;;;;8.05;2.30;;;19.70;63.30;;;;;;5086805;28;20053;-64
2022/05/20 09:38:09;;;;;;;3.35;1.95;;;19.70;80.10;;;;;;5067331;28;20159;-66
2022/05/20 09:40:46;;;;;;;7.38;1.85;;;19.70;77.50;;;;;;5087577;28;20054;-66
2022/05/20 09:43:28;;;;;;;5.25;1.90;;;19.70;66.10;;;;;;5087226;28;20058;-64
2022/05/20 09:45:56;;;;;;;6.50;2.47;;;19.50;74.40;;;;;;5087960;28;20094;-64
2022/05/20 09:48:55;;;;;;;7.43;2.35;;;19.60;78.90;;;;;;5087830;28;20040;-65
2022/05/20 09:51:25;;;;;;;8.13;2.23;;;19.70;63.50;;;;;;5087653;28;20036;-63
2022/05/20 09:54:13;;;;;;;6.45;2.08;;;19.50;69.90;;;;;;5072571;28;20470;-62
2022/05/20 09:56:43;;;;;;;4.20;1.83;;;19.30;69.30;;;;;;5088112;28;20455;-61
2022/05/20 09:59:12;;;;;;;4.15;2.20;;;19.30;71.80;;;;;;5089381;28;20072;-64
2022/05/20 10:01:40;;;;;;;3.78;2.00;;;19.40;72.10;;;;;;5088326;28;20393;-65
2022/05/20 10:04:15;;;;;;;6.47;2.38;;;19.40;79.90;;;;;;5086925;28;20306;-62
2022/05/20 10:06:50;;;;;;;4.70;2.30;;;19.30;74.00;;;;;;5088415;28;20040;-70
2022/05/20 10:09:15;;;;;;;9.48;2.30;;;19.10;73.00;;;;;;5087724;28;20048;-71
2022/05/20 10:12:17;;;;;;;5.47;2.50;;;18.90;71.10;;;;;;5088178;28;20063;-69
2022/05/20 10:15:03;;;;;;;3.90;1.95;;;18.70;83.90;;;;;;5090950;28;20096;-65
2022/05/20 10:17:47;;;;;;;5.05;1.98;;;18.50;70.90;;;;;;5076435;28;20048;-61
2022/05/20 10:20:29;;;;;;;5.72;2.30;;;18.50;82.10;;;;;;5071536;28;20056;-66
2022/05/20 10:23:18;;;;;;;6.55;2.45;;;18.60;83.60;;;;;;5075807;28;20051;-64
2022/05/20 10:25:53;;;;;;;3.80;2.20;;;18.50;79.20;;;;;;5074134;28;20047;-69
2022/05/20 10:34:10;;;;;;;6.85;2.38;;;18.20;78.80;;;;;;5080562;28;20553;-65
2022/05/20 10:36:58;;;;;;;4.60;2.13;;;18.20;92.30;;;;;;5069645;28;20489;-64
2022/05/20 10:39:53;;;;;;;9.27;2.90;;;18.30;79.70;;;;;;5088853;28;20113;-68
2022/05/20 10:42:46;;;;;;;4.78;2.30;;;18.30;76.70;;;;;;4998691;28;20050;-68
2022/05/20 10:48:50;;;;;;;4.88;2.20;;;18.50;79.60;;;;;;5104987;28;20044;-66
2022/05/20 10:51:51;;;;;;;5.60;2.90;;;18.70;75.80;;;;;;5091246;28;20051;-69
2022/05/20 10:54:28;;;;;;;4.70;2.17;;;18.80;88.70;;;;;;5027672;28;20053;-61
2022/05/20 10:57:21;;;;;;;4.47;2.40;;;19.00;83.50;;;;;;5081011;28;20451;-64
2022/05/20 10:59:59;;;;;;;4.22;2.33;;;19.20;80.40;;;;;;5106751;28;20136;-62
2022/05/20 11:02:46;;;;;;;5.95;2.72;;;19.20;76.30;;;;;;5106943;28;20058;-62
2022/05/20 11:05:54;;;;;;;4.28;2.63;;;19.10;74.40;;;;;;5104146;28;20465;-69
2022/05/20 11:08:51;;;;;;;5.50;2.20;;;19.10;79.30;;;;;;5101969;28;20204;-72
2022/05/20 11:11:53;;;;;;;7.20;2.53;;;19.10;86.30;;;;;;5087115;28;20046;-63
2022/05/20 11:15:01;;;;;;;5.70;2.30;;;19.00;79.00;;;;;;5090172;28;20047;-63
2022/05/20 11:17:39;;;;;;;3.65;1.90;;;19.10;84.30;;;;;;5077158;28;20056;-64
2022/05/20 11:20:33;;;;;;;5.63;1.98;;;19.30;74.30;;;;;;5109101;28;20047;-68
2022/05/20 11:23:55;;;;;;;4.55;1.67;;;19.20;69.70;;;;;;5081066;28;20072;-64
2022/05/20 11:26:44;;;;;;;7.07;2.22;;;19.20;64.50;;;;;;4987985;28;20054;-68
2022/05/20 11:29:11;;;;;;;8.00;2.78;;;19.20;64.60;;;;;;4989654;28;20134;-61
2022/05/20 11:31:48;;;;;;;5.03;2.67;;;19.10;71.70;;;;;;5057451;28;20414;-64
2022/05/20 11:34:39;;;;;;;9.50;2.95;;;19.20;74.60;;;;;;5090166;28;20039;-60
2022/05/20 11:37:05;;;;;;;6.10;2.47;;;19.40;78.80;;;;;;5086753;28;20050;-65
2022/05/20 11:40:03;;;;;;;4.78;2.38;;;19.60;74.90;;;;;;5072006;28;20401;-68
2022/05/20 11:42:45;;;;;;;5.70;1.90;;;19.70;66.00;;;;;;5089852;28;20460;-61
2022/05/20 11:45:51;;;;;;;3.90;2.20;;;19.60;70.80;;;;;;5090090;28;20066;-63
2022/05/20 11:48:42;;;;;;;6.35;2.30;;;19.70;66.10;;;;;;5078595;28;20048;-65
2022/05/20 11:51:28;;;;;;;4.22;1.95;;;19.60;52.60;;;;;;5090325;28;20135;-66
2022/05/20 11:54:07;;;;;;;3.85;2.17;;;19.70;59.60;;;;;;5072895;28;20055;-59
2022/05/20 11:56:38;;;;;;;7.10;2.72;;;19.80;54.00;;;;;;5089330;28;20109;-66
2022/05/20 11:59:19;;;;;;;4.78;2.55;;;19.70;54.30;;;;;;5053329;28;20123;-67
2022/05/20 12:01:50;;;;;;;6.70;2.25;;;19.60;63.40;;;;;;5071930;28;20077;-66
2022/05/20 12:04:19;;;;;;;5.20;1.92;;;19.70;64.90;;;;;;5085956;28;20383;-67
2022/05/20 12:06:59;;;;;;;3.20;1.73;;;19.90;60.10;;;;;;5084685;28;20421;-64
2022/05/20 12:09:38;;;;;;;2.95;1.73;;;20.00;60.60;;;;;;5069687;28;20046;-66
2022/05/20 12:12:20;;;;;;;8.80;1.95;;;20.00;72.30;;;;;;5089936;28;20047;-60
2022/05/20 12:15:06;;;;;;;8.05;2.30;;;20.00;59.60;;;;;;5088215;28;20082;-64
2022/05/20 12:17:40;;;;;;;3.75;2.15;;;20.00;56.90;;;;;;5070000;28;20078;-70
2022/05/20 12:24:12;;;;;;;3.65;1.90;;;20.10;72.00;;;;;;5085367;28;20521;-60
2022/05/20 12:26:42;;;;;;;4.32;2.10;;;20.00;60.90;;;;;;5085357;28;20048;-61
2022/05/20 12:29:45;;;;;;;6.10;1.95;;;19.80;54.20;;;;;;5069508;28;20126;-62
2022/05/20 12:32:30;;;;;;;3.60;2.03;;;19.70;63.00;;;;;;5088826;28;20043;-64
2022/05/20 12:35:22;;;;;;;6.28;1.50;;;19.80;66.40;;;;;;5071393;28;20566;-66
2022/05/20 12:37:52;;;;;;;3.70;1.92;;;19.70;61.40;;;;;;5088904;28;20055;-61
2022/05/20 12:40:26;;;;;;;1.70;1.60;;;19.50;65.80;;;;;;5084644;28;20040;-63
2022/05/20 12:42:59;;;;;;;2.70;1.45;;;19.40;64.00;;;;;;5086185;28;20063;-71
2022/05/20 12:45:27;;;;;;;5.63;1.80;;;19.40;60.70;;;;;;5068967;28;20043;-68
2022/05/20 12:47:56;;;;;;;8.32;2.83;;;19.40;67.50;;;;;;5069308;28;20576;-63
2022/05/20 12:50:27;;;;;;;5.05;2.03;;;19.40;57.10;;;;;;5088512;28;20047;-61
2022/05/20 12:53:02;;;;;;;5.65;2.50;;;19.50;63.10;;;;;;5088562;28;20481;-61
2022/05/20 12:55:37;;;;;;;5.53;2.28;;;19.50;61.40;;;;;;5088144;28;20573;-64
2022/05/20 12:58:13;;;;;;;5.85;2.30;;;19.50;63.10;;;;;;5085007;28;20044;-65
2022/05/20 13:00:48;;;;;;;2.83;2.00;;;19.50;61.90;;;;;;5084560;28;20127;-60
2022/05/20 13:03:26;;;;;;;10.90;2.72;;;19.60;68.40;;;;;;5086006;28;20109;-63
2022/05/20 13:06:17;;;;;;;4.03;2.03;;;19.70;63.50;;;;;;5104677;28;20558;-69
2022/05/20 13:09:04;;;;;;;3.90;2.17;;;19.70;63.50;;;;;;5088994;28;20055;-62
2022/05/20 13:11:41;;;;;;;4.13;2.15;;;19.70;67.70;;;;;;5084111;28;20506;-60
2022/05/20 13:14:12;;;;;;;4.55;2.03;;;19.60;61.40;;;;;;5068009;28;20119;-68
2022/05/20 13:16:40;;;;;;;2.10;1.48;;;19.50;63.30;;;;;;5084758;28;20161;-62
2022/05/20 13:19:17;;;;;;;5.53;2.13;;;19.50;56.50;;;;;;5087792;28;20047;-61
2022/05/20 13:21:50;;;;;;;6.32;2.15;;;19.40;52.50;;;;;;5088042;28;20059;-63
2022/05/20 13:24:19;;;;;;;5.20;1.70;;;19.40;55.90;;;;;;5088021;28;20543;-67
2022/05/20 13:26:44;;;;;;;3.90;1.70;;;19.50;66.60;;;;;;5087599;28;20105;-63
2022/05/20 13:29:20;;;;;;;3.40;1.67;;;19.40;61.60;;;;;;5051481;28;20044;-61
2022/05/20 13:31:46;;;;;;;6.03;1.92;;;19.40;58.90;;;;;;5079838;28;20127;-64
2022/05/20 13:34:12;;;;;;;2.45;1.60;;;19.30;51.90;;;;;;5072028;28;20097;-69
2022/05/20 13:36:50;;;;;;;5.35;1.85;;;19.30;57.30;;;;;;5095524;28;20051;-60
2022/05/20 13:39:23;;;;;;;2.80;1.60;;;19.20;59.00;;;;;;5088754;28;20047;-64
2022/05/20 13:41:50;;;;;;;3.72;1.40;;;19.10;54.70;;;;;;5083779;28;20055;-67